Time;durP1;ratioP1;P1;durP2;ratioP2;P2;SDS_P1;SDS_P2;PMS_P1;PMS_P2;Temp;Humidity;BMP_temperature;BMP_pressure;BME280_temperature;BME280_humidity;BME280_pressure;Samples;Min_cycle;Max_cycle;Signal;HPM_P1;HPM_P2
2023/12/14 00:00:22;;;;;;;4.32;2.20;;;;;;;5.06;100.00;101119.31;7379725;19;19954;-80
2023/12/14 00:02:51;;;;;;;5.40;2.35;;;;;;;5.07;100.00;101115.66;7392980;19;19929;-80
2023/12/14 00:05:19;;;;;;;4.72;2.03;;;;;;;5.09;100.00;101111.03;7392373;19;19911;-80
2023/12/14 00:07:50;;;;;;;3.97;2.33;;;;;;;5.07;100.00;101123.69;7389674;19;19919;-80
2023/12/14 00:10:20;;;;;;;3.20;1.80;;;;;;;5.06;100.00;101127.31;7392023;19;19929;-80
2023/12/14 00:13:08;;;;;;;2.55;1.70;;;;;;;5.06;100.00;101132.66;7390540;19;19923;-80
2023/12/14 00:15:37;;;;;;;3.53;2.00;;;;;;;5.05;100.00;101135.50;7396192;19;19950;-80
2023/12/14 00:18:06;;;;;;;2.90;2.13;;;;;;;5.02;100.00;101132.09;7398599;19;19959;-80
2023/12/14 00:20:35;;;;;;;3.42;2.20;;;;;;;5.02;100.00;101140.09;7396567;19;19926;-80
2023/12/14 00:23:06;;;;;;;3.60;2.38;;;;;;;5.02;100.00;101144.59;7396458;19;19922;-80
2023/12/14 00:25:34;;;;;;;3.72;2.10;;;;;;;5.00;100.00;101154.56;7396723;19;19946;-80
2023/12/14 00:28:03;;;;;;;3.55;2.00;;;;;;;4.98;100.00;101157.38;7391485;19;19942;-80
2023/12/14 00:30:32;;;;;;;4.32;2.30;;;;;;;4.98;100.00;101167.19;7394371;19;19921;-80
2023/12/14 00:33:01;;;;;;;3.80;2.30;;;;;;;4.96;100.00;101175.34;7398391;19;19928;-80
2023/12/14 00:35:29;;;;;;;3.90;1.92;;;;;;;4.97;100.00;101181.53;7398475;19;19926;-80
2023/12/14 00:37:58;;;;;;;3.95;2.17;;;;;;;4.98;100.00;101188.56;7399184;19;19926;-80
2023/12/14 00:40:29;;;;;;;4.20;2.42;;;;;;;4.98;100.00;101193.91;7397264;19;19925;-80
2023/12/14 00:42:58;;;;;;;4.20;1.92;;;;;;;4.97;100.00;101198.38;7396750;19;19952;-80
2023/12/14 00:45:27;;;;;;;4.38;2.42;;;;;;;4.97;100.00;101202.88;7391669;19;19939;-80
2023/12/14 00:47:56;;;;;;;7.32;2.83;;;;;;;4.97;100.00;101202.88;7397894;19;19956;-80
2023/12/14 00:50:24;;;;;;;3.00;2.00;;;;;;;4.99;100.00;101199.13;7397209;19;19922;-80
2023/12/14 00:52:53;;;;;;;4.35;2.55;;;;;;;4.99;100.00;101203.59;7398040;19;19915;-80
2023/12/14 00:55:21;;;;;;;5.30;2.35;;;;;;;4.97;100.00;101201.06;7396922;19;20360;-80
2023/12/14 00:57:53;;;;;;;4.13;2.38;;;;;;;4.97;100.00;101208.22;7397164;19;19946;-80
2023/12/14 01:00:21;;;;;;;7.88;3.60;;;;;;;4.98;100.00;101209.91;7395061;19;20536;-80
2023/12/14 01:02:50;;;;;;;6.10;2.83;;;;;;;4.97;100.00;101209.06;7397549;19;20290;-80
2023/12/14 01:05:19;;;;;;;5.18;2.78;;;;;;;4.97;100.00;101224.22;7397940;19;19942;-80
2023/12/14 01:07:48;;;;;;;8.00;3.30;;;;;;;4.93;100.00;101218.31;7399150;19;19918;-80
2023/12/14 01:10:16;;;;;;;5.68;2.72;;;;;;;4.93;100.00;101223.66;7399777;19;19940;-80
2023/12/14 01:12:45;;;;;;;5.82;2.20;;;;;;;4.92;100.00;101235.31;7397487;19;20590;-80
2023/12/14 01:15:16;;;;;;;5.10;2.17;;;;;;;4.92;100.00;101242.47;7401018;19;19919;-80
2023/12/14 01:17:45;;;;;;;4.68;2.58;;;;;;;4.90;100.00;101241.78;7404113;19;19947;-82
2023/12/14 01:20:14;;;;;;;6.80;3.10;;;;;;;4.90;100.00;101250.63;7401181;19;19922;-82
2023/12/14 01:22:42;;;;;;;4.35;2.78;;;;;;;4.90;100.00;101252.44;7395215;19;19926;-83
2023/12/14 01:25:11;;;;;;;3.40;2.03;;;;;;;4.90;100.00;101247.97;7401146;19;19918;-83
2023/12/14 01:27:40;;;;;;;4.38;2.63;;;;;;;4.91;100.00;101254.16;7398872;19;19911;-82
2023/12/14 01:30:31;;;;;;;5.90;2.70;;;;;;;4.92;100.00;101255.81;7393433;19;20568;-83
2023/12/14 01:33:19;;;;;;;6.63;2.63;;;;;;;4.92;100.00;101259.34;7395108;19;19918;-83
2023/12/14 01:35:48;;;;;;;4.65;2.22;;;;;;;4.93;100.00;101265.53;7396937;19;20286;-83
2023/12/14 01:38:17;;;;;;;6.70;2.88;;;;;;;4.91;100.00;101273.69;7397200;19;19929;-83
2023/12/14 01:40:45;;;;;;;4.68;2.78;;;;;;;4.91;100.00;101275.50;7394784;19;19922;-83
2023/12/14 01:43:15;;;;;;;5.53;3.00;;;;;;;4.89;100.00;101277.44;7394422;19;19922;-83
2023/12/14 01:45:46;;;;;;;6.47;3.28;;;;;;;4.88;100.00;101279.25;7390250;19;19926;-83
2023/12/14 01:48:15;;;;;;;8.57;4.13;;;;;;;4.88;100.00;101276.59;7395285;19;19922;-83
2023/12/14 01:50:44;;;;;;;9.20;3.90;;;;;;;4.90;100.00;101284.47;7394765;19;19923;-83
2023/12/14 01:53:13;;;;;;;8.55;4.10;;;;;;;4.92;100.00;101290.53;7395038;19;19926;-83
2023/12/14 01:55:42;;;;;;;11.13;4.90;;;;;;;4.92;100.00;101294.03;7394835;19;19918;-83
2023/12/14 01:58:11;;;;;;;10.48;4.15;;;;;;;4.92;100.00;101298.53;7394833;19;19930;-83
2023/12/14 02:00:43;;;;;;;8.88;4.47;;;;;;;4.91;100.00;101304.88;7395063;19;19926;-82
2023/12/14 02:03:14;;;;;;;6.25;3.53;;;;;;;4.90;100.00;101301.34;7396137;19;19933;-82
2023/12/14 02:05:43;;;;;;;8.35;4.05;;;;;;;4.91;100.00;101320.88;7393826;19;19923;-82
2023/12/14 02:08:12;;;;;;;10.18;4.38;;;;;;;4.91;100.00;101328.91;7396550;19;20721;-82
2023/12/14 02:10:41;;;;;;;9.40;4.35;;;;;;;4.90;100.00;101324.53;7395616;19;19914;-82
2023/12/14 02:13:10;;;;;;;8.77;4.80;;;;;;;4.89;100.00;101322.81;7394629;19;20381;-82
2023/12/14 02:15:38;;;;;;;9.55;4.10;;;;;;;4.88;100.00;101334.47;7387901;19;20068;-82
2023/12/14 02:18:07;;;;;;;11.45;4.05;;;;;;;4.86;100.00;101333.78;7393388;19;19923;-81
2023/12/14 02:20:38;;;;;;;8.95;4.35;;;;;;;4.86;100.00;101333.78;7394398;19;19918;-80
2023/12/14 02:23:09;;;;;;;8.30;4.53;;;;;;;4.84;100.00;101341.91;7396287;19;20297;-80
2023/12/14 02:25:38;;;;;;;7.35;3.95;;;;;;;4.84;100.00;101349.06;7395169;19;19951;-80
2023/12/14 02:28:06;;;;;;;6.28;3.58;;;;;;;4.84;100.00;101343.72;7399275;19;19918;-80
2023/12/14 02:30:35;;;;;;;11.70;5.05;;;;;;;4.83;100.00;101336.72;7391003;19;19977;-80
2023/12/14 02:33:03;;;;;;;9.68;4.10;;;;;;;4.83;100.00;101331.38;7394575;19;20302;-80
2023/12/14 02:35:32;;;;;;;7.65;3.60;;;;;;;4.80;100.00;101324.44;7395097;19;19910;-80
2023/12/14 02:38:00;;;;;;;9.32;3.88;;;;;;;4.81;100.00;101331.47;7392277;19;19922;-80
2023/12/14 02:40:31;;;;;;;8.65;3.95;;;;;;;4.82;100.00;101333.19;7394062;19;19923;-80
2023/12/14 02:43:00;;;;;;;8.25;3.47;;;;;;;4.81;100.00;101335.97;7394389;19;19922;-80
2023/12/14 02:45:29;;;;;;;12.93;4.38;;;;;;;4.81;100.00;101336.81;7396311;19;19919;-80
2023/12/14 02:47:58;;;;;;;8.25;3.50;;;;;;;4.80;100.00;101337.78;7387130;19;20285;-80
2023/12/14 02:50:26;;;;;;;9.68;4.60;;;;;;;4.79;100.00;101337.94;7392189;19;19955;-80
2023/12/14 02:52:55;;;;;;;7.63;3.38;;;;;;;4.79;100.00;101356.63;7393976;19;19922;-80
2023/12/14 02:55:24;;;;;;;8.35;4.00;;;;;;;4.80;100.00;101359.16;7395364;19;19931;-80
2023/12/14 02:57:55;;;;;;;9.82;3.78;;;;;;;4.79;100.00;101369.97;7392303;19;19923;-80
2023/12/14 03:00:24;;;;;;;9.10;4.45;;;;;;;4.79;100.00;101364.63;7393611;19;20253;-80
2023/12/14 03:02:52;;;;;;;7.80;3.33;;;;;;;4.79;100.00;101367.31;7394254;19;20369;-80
2023/12/14 03:05:21;;;;;;;8.93;3.42;;;;;;;4.80;100.00;101371.63;7387170;19;19934;-80
2023/12/14 03:07:49;;;;;;;6.47;3.00;;;;;;;4.81;100.00;101368.00;7395003;19;19956;-80
2023/12/14 03:10:18;;;;;;;9.20;3.90;;;;;;;4.80;100.00;101379.66;7395662;19;19922;-80
2023/12/14 03:12:47;;;;;;;9.65;4.32;;;;;;;4.75;100.00;101377.34;7396919;19;20660;-80
2023/12/14 03:15:20;;;;;;;7.57;3.58;;;;;;;4.68;100.00;101378.00;7397587;19;19943;-80
2023/12/14 03:17:49;;;;;;;7.80;3.67;;;;;;;4.68;100.00;101380.66;7397783;19;20321;-80
2023/12/14 03:20:17;;;;;;;10.55;3.70;;;;;;;4.65;100.00;101383.59;7393591;19;19926;-80
2023/12/14 03:22:46;;;;;;;7.38;3.83;;;;;;;4.62;100.00;101392.69;7393756;19;20388;-80
2023/12/14 03:25:16;;;;;;;6.90;3.40;;;;;;;4.56;100.00;101393.22;7399785;19;19918;-81
2023/12/14 03:27:44;;;;;;;7.47;3.97;;;;;;;4.49;100.00;101403.50;7400343;19;19947;-80
2023/12/14 03:30:14;;;;;;;10.35;4.00;;;;;;;4.42;100.00;101402.34;7396374;19;20556;-79
2023/12/14 03:32:45;;;;;;;9.13;3.70;;;;;;;4.36;100.00;101408.16;7393267;19;20408;-80
2023/12/14 03:35:13;;;;;;;8.85;4.28;;;;;;;4.35;100.00;101413.63;7393270;19;19955;-80
2023/12/14 03:37:42;;;;;;;7.00;3.88;;;;;;;4.36;100.00;101412.63;7393151;19;19954;-80
2023/12/14 03:40:11;;;;;;;6.85;3.63;;;;;;;4.37;100.00;101417.00;7392168;19;19922;-80
2023/12/14 03:42:39;;;;;;;6.25;3.35;;;;;;;4.39;100.00;101421.25;7393260;19;19922;-80
2023/12/14 03:45:10;;;;;;;9.68;3.88;;;;;;;4.41;100.00;101418.44;7391922;19;19942;-80
2023/12/14 03:47:39;;;;;;;7.65;3.70;;;;;;;4.42;100.00;101423.66;7391698;19;19947;-80
2023/12/14 03:50:14;;;;;;;9.77;3.88;;;;;;;4.44;100.00;101434.22;7396956;19;19942;-80
2023/12/14 03:52:42;;;;;;;9.02;4.45;;;;;;;4.46;100.00;101440.28;7399327;19;19923;-80
2023/12/14 03:55:11;;;;;;;9.50;3.65;;;;;;;4.46;100.00;101449.13;7400018;19;19918;-80
2023/12/14 03:57:37;;;;;;;8.95;3.80;;;;;;;4.47;100.00;101452.66;7398731;19;19954;-80
2023/12/14 04:00:08;;;;;;;8.82;3.67;;;;;;;4.48;100.00;101460.53;7398753;19;19922;-80
2023/12/14 04:02:37;;;;;;;8.68;4.80;;;;;;;4.50;100.00;101458.56;7391011;19;20281;-80
2023/12/14 04:05:06;;;;;;;7.82;4.15;;;;;;;4.52;100.00;101455.78;7395708;19;19979;-80
2023/12/14 04:07:40;;;;;;;8.98;4.47;;;;;;;4.52;100.00;101467.31;7397746;19;19937;-80
2023/12/14 04:10:10;;;;;;;8.35;4.50;;;;;;;4.55;100.00;101461.72;7398242;19;20348;-80
2023/12/14 04:12:39;;;;;;;9.15;3.80;;;;;;;4.56;100.00;101455.44;7395488;19;19923;-80
2023/12/14 04:15:27;;;;;;;6.47;4.30;;;;;;;4.56;100.00;101463.44;7397824;19;19926;-80
2023/12/14 04:17:56;;;;;;;8.85;4.38;;;;;;;4.57;100.00;101461.63;7398108;19;19918;-80
2023/12/14 04:20:24;;;;;;;9.45;4.30;;;;;;;4.57;100.00;101465.09;7398061;19;20535;-80
2023/12/14 04:22:55;;;;;;;10.20;3.97;;;;;;;4.58;100.00;101474.81;7389489;19;19960;-80
2023/12/14 04:25:24;;;;;;;8.75;4.72;;;;;;;4.60;100.00;101471.19;7396397;19;19927;-80
2023/12/14 04:27:53;;;;;;;14.10;5.03;;;;;;;4.61;100.00;101473.72;7399042;19;19927;-80
2023/12/14 04:30:22;;;;;;;10.82;4.88;;;;;;;4.61;100.00;101484.41;7390722;19;20253;-80
2023/12/14 04:32:50;;;;;;;10.07;4.97;;;;;;;4.61;100.00;101486.22;7398314;19;20261;-80
2023/12/14 04:35:16;;;;;;;10.05;4.07;;;;;;;4.61;100.00;101483.56;7397336;19;20317;-80
2023/12/14 04:37:45;;;;;;;10.07;4.53;;;;;;;4.61;100.00;101499.56;7397944;19;19936;-80
2023/12/14 04:40:16;;;;;;;9.75;4.50;;;;;;;4.60;100.00;101495.19;7396850;19;19947;-80
2023/12/14 04:42:45;;;;;;;9.77;4.97;;;;;;;4.60;100.00;101508.53;7397836;19;19918;-81
2023/12/14 04:45:13;;;;;;;11.18;5.05;;;;;;;4.61;100.00;101499.56;7397561;19;19926;-80
2023/12/14 04:47:43;;;;;;;11.52;4.80;;;;;;;4.60;100.00;101511.19;7397183;19;19934;-80
2023/12/14 04:50:12;;;;;;;9.23;4.22;;;;;;;4.61;100.00;101513.75;7386823;19;19946;-80
2023/12/14 04:52:41;;;;;;;12.23;4.70;;;;;;;4.58;100.00;101512.16;7398444;19;19926;-80
2023/12/14 04:55:10;;;;;;;10.45;4.18;;;;;;;4.58;100.00;101506.81;7394082;19;19986;-80
2023/12/14 04:58:01;;;;;;;9.90;4.47;;;;;;;4.59;100.00;101521.03;7394214;19;20033;-80
2023/12/14 05:00:30;;;;;;;13.13;4.57;;;;;;;4.61;100.00;101515.56;7394960;19;19922;-80
2023/12/14 05:02:58;;;;;;;12.10;4.40;;;;;;;4.60;100.00;101516.53;7396809;19;20486;-80
2023/12/14 05:05:27;;;;;;;10.27;4.45;;;;;;;4.60;100.00;101525.41;7396323;19;19915;-80
2023/12/14 05:07:55;;;;;;;10.55;4.68;;;;;;;4.60;100.00;101530.72;7388830;19;19953;-80
2023/12/14 05:10:24;;;;;;;9.43;4.13;;;;;;;4.60;100.00;101538.75;7398305;19;20293;-80
2023/12/14 05:12:53;;;;;;;7.60;4.18;;;;;;;4.61;100.00;101537.78;7397440;19;19923;-80
2023/12/14 05:15:24;;;;;;;11.77;4.63;;;;;;;4.64;100.00;101547.34;7397909;19;20273;-80
2023/12/14 05:17:52;;;;;;;7.25;3.78;;;;;;;4.64;100.00;101542.00;7397313;19;19923;-80
2023/12/14 05:20:22;;;;;;;10.02;4.45;;;;;;;4.65;100.00;101546.38;7397558;19;19925;-80
2023/12/14 05:22:50;;;;;;;10.48;4.63;;;;;;;4.64;100.00;101550.88;7396150;19;19993;-80
2023/12/14 05:25:19;;;;;;;10.55;4.40;;;;;;;4.65;100.00;101555.25;7397505;19;19919;-80
2023/12/14 05:28:07;;;;;;;10.82;4.65;;;;;;;4.64;100.00;101561.53;7398484;19;19918;-80
2023/12/14 05:30:38;;;;;;;10.10;5.22;;;;;;;4.64;100.00;101568.69;7401239;19;20384;-80
2023/12/14 05:33:07;;;;;;;12.30;4.53;;;;;;;4.64;100.00;101580.22;7404280;19;19914;-82
2023/12/14 05:35:35;;;;;;;9.70;4.70;;;;;;;4.65;100.00;101573.91;7397903;19;19923;-83
2023/12/14 05:38:04;;;;;;;10.98;5.05;;;;;;;4.66;100.00;101583.59;7395800;19;19951;-82
2023/12/14 05:40:33;;;;;;;12.40;5.88;;;;;;;4.65;100.00;101581.91;7397934;19;19926;-82
2023/12/14 05:43:01;;;;;;;11.30;4.82;;;;;;;4.65;100.00;101571.25;7396827;19;20012;-80
2023/12/14 05:45:30;;;;;;;10.65;4.72;;;;;;;4.65;100.00;101575.72;7396017;19;19922;-83
2023/12/14 05:48:04;;;;;;;12.25;4.95;;;;;;;4.64;100.00;101582.03;7393669;19;20248;-82
2023/12/14 05:50:32;;;;;;;10.48;4.80;;;;;;;4.63;100.00;101586.53;7397620;19;19970;-80
2023/12/14 05:53:01;;;;;;;13.13;6.50;;;;;;;4.65;100.00;101599.75;7396291;19;19939;-80
2023/12/14 05:55:29;;;;;;;12.13;4.78;;;;;;;4.65;100.00;101597.09;7398460;19;19934;-80
2023/12/14 05:57:58;;;;;;;11.30;4.25;;;;;;;4.65;100.00;101610.44;7393012;19;20699;-80
2023/12/14 06:00:26;;;;;;;15.88;4.88;;;;;;;4.64;100.00;101614.06;7396961;19;19922;-80
2023/12/14 06:02:55;;;;;;;12.88;5.25;;;;;;;4.65;100.00;101629.97;7388456;19;19918;-82
2023/12/14 06:05:26;;;;;;;10.57;5.85;;;;;;;4.64;100.00;101633.59;7390854;19;19918;-82
2023/12/14 06:07:54;;;;;;;12.02;5.03;;;;;;;4.63;100.00;101639.88;7392774;19;20415;-81
2023/12/14 06:10:23;;;;;;;12.82;5.35;;;;;;;4.65;100.00;101645.97;7395284;19;19930;-81
2023/12/14 06:12:52;;;;;;;11.68;4.63;;;;;;;4.67;100.00;101643.16;7395646;19;19919;-81
2023/12/14 06:15:21;;;;;;;11.43;5.05;;;;;;;4.67;100.00;101645.81;7396542;19;20355;-82
2023/12/14 06:17:49;;;;;;;12.63;4.85;;;;;;;4.67;100.00;101646.69;7396083;19;19918;-81
2023/12/14 06:20:18;;;;;;;9.27;5.25;;;;;;;4.68;100.00;101645.72;7395576;19;20308;-81
2023/12/14 06:23:09;;;;;;;11.10;5.13;;;;;;;4.68;100.00;101648.38;7384445;19;19922;-81
2023/12/14 06:25:38;;;;;;;9.02;4.53;;;;;;;4.70;100.00;101650.94;7396709;19;19962;-81
2023/12/14 06:28:06;;;;;;;11.85;4.80;;;;;;;4.68;100.00;101653.72;7395584;19;19926;-81
2023/12/14 06:30:35;;;;;;;11.32;5.93;;;;;;;4.67;100.00;101665.38;7387808;19;19944;-81
2023/12/14 06:33:04;;;;;;;10.43;5.20;;;;;;;4.68;100.00;101674.22;7387775;19;19926;-81
2023/12/14 06:35:32;;;;;;;11.57;5.78;;;;;;;4.66;100.00;101679.66;7390898;19;20385;-81
2023/12/14 06:38:23;;;;;;;15.25;5.65;;;;;;;4.66;100.00;101687.66;7391870;19;19919;-81
2023/12/14 06:40:52;;;;;;;12.48;5.38;;;;;;;4.67;100.00;101693.88;7388886;19;19946;-81
2023/12/14 06:43:20;;;;;;;13.35;5.65;;;;;;;4.66;100.00;101684.19;7395586;19;19940;-81
2023/12/14 06:45:49;;;;;;;10.95;5.25;;;;;;;4.65;100.00;101695.81;7396342;19;20492;-82
2023/12/14 06:48:18;;;;;;;10.27;5.32;;;;;;;4.66;100.00;101708.19;7395780;19;19926;-81
2023/12/14 06:50:46;;;;;;;11.57;6.20;;;;;;;4.66;100.00;101702.88;7395423;19;19943;-81
2023/12/14 06:53:15;;;;;;;10.45;5.53;;;;;;;4.65;100.00;101702.00;7396330;19;20303;-81
2023/12/14 06:55:46;;;;;;;13.80;5.20;;;;;;;4.65;100.00;101703.81;7396281;19;19922;-82
2023/12/14 06:58:15;;;;;;;14.20;5.30;;;;;;;4.64;100.00;101710.13;7395601;19;20348;-83
2023/12/14 07:00:44;;;;;;;15.65;5.80;;;;;;;4.63;100.00;101714.59;7396166;19;19943;-83
2023/12/14 07:03:12;;;;;;;11.68;5.50;;;;;;;4.63;100.00;101716.41;7390738;19;19928;-83
2023/12/14 07:05:41;;;;;;;14.27;6.03;;;;;;;4.63;100.00;101719.94;7384172;19;19951;-84
2023/12/14 07:08:10;;;;;;;15.52;6.10;;;;;;;4.63;100.00;101724.44;7396113;19;19918;-84
2023/12/14 07:10:38;;;;;;;12.77;5.45;;;;;;;4.62;100.00;101722.75;7401596;19;19919;-83
2023/12/14 07:13:10;;;;;;;12.80;5.88;;;;;;;4.63;100.00;101730.63;7400539;19;19947;-84
2023/12/14 07:15:38;;;;;;;14.30;5.45;;;;;;;4.63;100.00;101727.09;7400572;19;19926;-83
2023/12/14 07:18:07;;;;;;;11.93;5.38;;;;;;;4.62;100.00;101734.25;7397085;19;19977;-83
2023/12/14 07:20:35;;;;;;;12.93;5.95;;;;;;;4.61;100.00;101726.38;7388430;19;20962;-81
2023/12/14 07:23:04;;;;;;;15.27;6.45;;;;;;;4.60;100.00;101736.19;7387946;19;19926;-81
2023/12/14 07:25:32;;;;;;;12.38;6.00;;;;;;;4.60;100.00;101732.69;7389716;19;20076;-80
2023/12/14 07:28:01;;;;;;;14.32;5.82;;;;;;;4.59;100.00;101731.81;7391313;19;19922;-81
2023/12/14 07:30:32;;;;;;;17.40;6.15;;;;;;;4.61;100.00;101745.06;7396343;19;20321;-81
2023/12/14 07:33:01;;;;;;;15.07;5.72;;;;;;;4.62;100.00;101746.78;7397426;19;19929;-81
2023/12/14 07:35:30;;;;;;;10.75;5.28;;;;;;;4.61;100.00;101745.91;7406277;19;19931;-80
2023/12/14 07:37:58;;;;;;;16.25;6.35;;;;;;;4.62;100.00;101746.78;7405556;19;19919;-80
2023/12/14 07:40:31;;;;;;;13.80;5.68;;;;;;;4.62;100.00;101747.59;7397428;19;19928;-81
2023/12/14 07:43:01;;;;;;;11.43;5.63;;;;;;;4.62;100.00;101747.59;7395429;19;19922;-81
2023/12/14 07:45:32;;;;;;;11.85;5.47;;;;;;;4.62;100.00;101754.78;7395610;19;19926;-81
2023/12/14 07:48:01;;;;;;;12.00;5.40;;;;;;;4.62;100.00;101763.59;7393764;19;19915;-80
2023/12/14 07:50:30;;;;;;;11.27;5.00;;;;;;;4.62;100.00;101763.59;7394017;19;19929;-80
2023/12/14 07:53:00;;;;;;;13.48;6.18;;;;;;;4.61;100.00;101764.59;7395794;19;19923;-81
2023/12/14 07:55:31;;;;;;;13.90;5.90;;;;;;;4.62;100.00;101768.13;7396429;19;19922;-81
2023/12/14 07:58:00;;;;;;;14.85;6.30;;;;;;;4.62;100.00;101771.59;7392792;19;20300;-81
2023/12/14 08:00:34;;;;;;;12.93;5.47;;;;;;;4.62;100.00;101776.94;7393500;19;19926;-80
2023/12/14 08:03:03;;;;;;;10.88;5.10;;;;;;;4.62;100.00;101781.47;7392530;19;19942;-81
2023/12/14 08:05:31;;;;;;;11.98;6.07;;;;;;;4.62;100.00;101790.28;7393896;19;19926;-81
2023/12/14 08:08:00;;;;;;;11.55;6.30;;;;;;;4.63;100.00;101791.16;7394601;19;19926;-81
2023/12/14 08:10:28;;;;;;;13.90;6.13;;;;;;;4.62;100.00;101800.97;7394833;19;19943;-81
2023/12/14 08:12:57;;;;;;;15.85;7.03;;;;;;;4.62;100.00;101810.81;7394360;19;19930;-81
2023/12/14 08:15:25;;;;;;;11.90;6.60;;;;;;;4.63;100.00;101817.81;7394361;19;19914;-81
2023/12/14 08:17:57;;;;;;;11.77;6.10;;;;;;;4.63;100.00;101816.00;7392167;19;19927;-81
2023/12/14 08:20:25;;;;;;;11.10;5.07;;;;;;;4.65;100.00;101831.94;7395076;19;19994;-81
2023/12/14 08:22:54;;;;;;;13.00;6.05;;;;;;;4.65;100.00;101831.94;7390458;19;20300;-81
2023/12/14 08:25:22;;;;;;;14.02;5.78;;;;;;;4.65;100.00;101826.59;7393886;19;19915;-81
2023/12/14 08:27:51;;;;;;;13.70;5.63;;;;;;;4.67;100.00;101841.50;7393522;19;19926;-81
2023/12/14 08:30:20;;;;;;;16.10;5.47;;;;;;;4.68;100.00;101843.22;7393990;19;19919;-81
2023/12/14 08:32:49;;;;;;;12.30;5.90;;;;;;;4.71;100.00;101844.78;7385398;19;19922;-80
2023/12/14 08:35:20;;;;;;;14.65;6.13;;;;;;;4.71;100.00;101848.31;7392932;19;19970;-81
2023/12/14 08:37:49;;;;;;;14.95;6.32;;;;;;;4.73;100.00;101850.88;7399545;19;19926;-81
2023/12/14 08:40:17;;;;;;;15.85;5.60;;;;;;;4.73;100.00;101861.56;7404436;19;19930;-81
2023/12/14 08:42:46;;;;;;;12.20;5.32;;;;;;;4.72;100.00;101866.03;7388447;19;19923;-81
2023/12/14 08:45:14;;;;;;;10.90;6.03;;;;;;;4.74;100.00;101863.25;7397789;19;19943;-81
2023/12/14 08:47:43;;;;;;;13.85;4.88;;;;;;;4.75;100.00;101868.47;7396213;19;20557;-81
2023/12/14 08:50:12;;;;;;;12.73;5.13;;;;;;;4.76;100.00;101877.34;7399453;19;19915;-81
2023/12/14 08:52:44;;;;;;;10.70;5.05;;;;;;;4.78;100.00;101883.41;7399449;19;19919;-81
2023/12/14 08:55:13;;;;;;;13.63;5.88;;;;;;;4.79;100.00;101875.28;7400116;19;19914;-80
2023/12/14 08:57:41;;;;;;;14.20;6.15;;;;;;;4.79;100.00;101880.63;7393207;19;19926;-81
2023/12/14 09:00:11;;;;;;;11.48;5.60;;;;;;;4.80;100.00;101885.00;7396738;19;19930;-81
2023/12/14 09:02:40;;;;;;;13.63;5.80;;;;;;;4.79;100.00;101885.94;7398370;19;19996;-81
2023/12/14 09:05:09;;;;;;;14.75;6.32;;;;;;;4.81;100.00;101901.88;7397682;19;19919;-81
2023/12/14 09:07:38;;;;;;;13.45;6.15;;;;;;;4.81;100.00;101900.06;7398825;19;19953;-81
2023/12/14 09:10:29;;;;;;;11.45;5.78;;;;;;;4.82;100.00;101901.75;7398424;19;19922;-80
2023/12/14 09:13:00;;;;;;;15.95;6.65;;;;;;;4.82;100.00;101906.25;7398150;19;19947;-80
2023/12/14 09:15:28;;;;;;;16.45;6.30;;;;;;;4.83;100.00;101905.28;7400390;19;19942;-80
2023/12/14 09:17:57;;;;;;;10.82;5.65;;;;;;;4.84;100.00;101909.63;7392923;19;19926;-81
2023/12/14 09:20:25;;;;;;;11.85;5.35;;;;;;;4.86;100.00;101908.56;7400559;19;19942;-81
2023/12/14 09:22:54;;;;;;;12.55;5.53;;;;;;;4.88;100.00;101909.28;7395822;19;19923;-81
2023/12/14 09:25:24;;;;;;;11.52;5.38;;;;;;;4.91;100.00;101909.09;7392496;19;20362;-81
2023/12/14 09:27:55;;;;;;;10.55;5.53;;;;;;;4.95;100.00;101909.69;7398059;19;20455;-80
2023/12/14 09:30:23;;;;;;;11.02;5.45;;;;;;;4.96;100.00;101911.41;7398149;19;19910;-81
2023/12/14 09:32:52;;;;;;;14.52;6.03;;;;;;;4.98;100.00;101914.81;7393268;19;19950;-81
2023/12/14 09:35:20;;;;;;;9.82;5.20;;;;;;;5.01;100.00;101910.06;7395623;19;19927;-81
2023/12/14 09:37:49;;;;;;;12.63;5.38;;;;;;;5.07;100.00;101915.94;7396605;19;19926;-81
2023/12/14 09:40:19;;;;;;;11.48;5.45;;;;;;;5.09;100.00;101920.16;7397884;19;19922;-81
2023/12/14 09:42:48;;;;;;;13.30;5.60;;;;;;;5.11;100.00;101923.59;7401215;19;19922;-81
2023/12/14 09:45:20;;;;;;;14.00;5.68;;;;;;;5.14;100.00;101922.50;7398966;19;19943;-81
2023/12/14 09:47:49;;;;;;;12.70;5.53;;;;;;;5.17;100.00;101919.63;7399028;19;20297;-81
2023/12/14 09:50:17;;;;;;;14.95;5.82;;;;;;;5.20;100.00;101922.03;7402038;19;19918;-81
2023/12/14 09:52:48;;;;;;;11.93;5.57;;;;;;;5.23;100.00;101921.78;7398425;19;19922;-81
2023/12/14 09:55:17;;;;;;;13.90;5.80;;;;;;;5.27;100.00;101931.28;7397421;19;19950;-81
2023/12/14 09:57:46;;;;;;;11.10;5.65;;;;;;;5.30;100.00;101933.75;7398423;19;20364;-80
2023/12/14 10:00:42;;;;;;;10.05;4.97;;;;;;;5.31;100.00;101943.44;7394477;19;19933;-80
2023/12/14 10:03:25;;;;;;;12.25;5.35;;;;;;;5.32;100.00;101943.34;7394692;19;19943;-81
2023/12/14 10:05:55;;;;;;;11.32;5.28;;;;;;;5.36;100.00;101946.63;7395987;19;19911;-80
2023/12/14 10:08:24;;;;;;;12.70;6.10;;;;;;;5.40;100.00;101942.75;7397570;19;19943;-81
2023/12/14 10:10:55;;;;;;;12.05;5.43;;;;;;;5.41;100.00;101945.31;7395630;19;19938;-82
2023/12/14 10:13:37;;;;;;;10.43;5.18;;;;;;;5.44;100.00;101949.53;7394032;19;20293;-81
2023/12/14 10:16:09;;;;;;;13.32;6.10;;;;;;;5.44;100.00;101950.41;7392230;19;20273;-81
2023/12/14 10:18:38;;;;;;;13.45;5.97;;;;;;;5.45;100.00;101952.09;7392911;19;19947;-81
2023/12/14 10:21:09;;;;;;;13.25;7.13;;;;;;;5.49;100.00;101955.41;7394779;19;19935;-80
2023/12/14 10:23:38;;;;;;;12.98;6.68;;;;;;;5.49;100.00;101961.59;7393714;19;19922;-81
2023/12/14 10:26:07;;;;;;;14.02;6.15;;;;;;;5.49;100.00;101961.59;7397282;19;19918;-81
2023/12/14 10:28:36;;;;;;;13.68;5.97;;;;;;;5.48;100.00;101959.88;7396358;19;20262;-81
2023/12/14 10:31:05;;;;;;;12.02;6.30;;;;;;;5.49;100.00;101961.59;7395141;19;19927;-80
2023/12/14 10:33:56;;;;;;;12.00;5.85;;;;;;;5.47;100.00;101962.69;7390250;19;19926;-81
2023/12/14 10:36:27;;;;;;;13.45;5.78;;;;;;;5.49;100.00;101955.41;7394634;19;19911;-81
2023/12/14 10:38:59;;;;;;;11.30;5.30;;;;;;;5.50;100.00;101959.78;7397312;19;19923;-81
2023/12/14 10:41:28;;;;;;;15.00;7.50;;;;;;;5.49;100.00;101955.41;7395684;19;19926;-80
2023/12/14 10:43:59;;;;;;;12.10;5.75;;;;;;;5.50;100.00;101965.13;7401324;19;19915;-81
2023/12/14 10:46:28;;;;;;;10.80;6.07;;;;;;;5.51;100.00;101971.31;7394708;19;19927;-81
2023/12/14 10:48:59;;;;;;;12.85;5.97;;;;;;;5.47;100.00;101970.72;7395167;19;19922;-81
2023/12/14 10:51:30;;;;;;;12.50;6.20;;;;;;;5.46;100.00;101972.53;7390168;19;19923;-80
2023/12/14 10:53:59;;;;;;;13.18;6.57;;;;;;;5.48;100.00;101983.94;7395128;19;19922;-81
2023/12/14 10:56:48;;;;;;;14.80;6.10;;;;;;;5.45;100.00;101977.97;7393141;19;19918;-81
2023/12/14 10:59:18;;;;;;;12.18;6.15;;;;;;;5.45;100.00;101981.50;7391600;19;19911;-81
2023/12/14 11:01:47;;;;;;;13.02;5.07;;;;;;;5.45;100.00;101992.19;7394307;19;19930;-81
2023/12/14 11:04:19;;;;;;;11.90;6.25;;;;;;;5.46;100.00;101993.06;7394860;19;20288;-80
2023/12/14 11:06:49;;;;;;;16.30;6.80;;;;;;;5.43;100.00;101987.94;7390005;19;19922;-81
2023/12/14 11:09:38;;;;;;;15.32;6.68;;;;;;;5.37;100.00;102001.75;7392398;19;19926;-81
2023/12/14 11:12:09;;;;;;;16.15;7.07;;;;;;;5.35;100.00;102003.72;7394176;19;19943;-81
2023/12/14 11:14:38;;;;;;;14.65;5.78;;;;;;;5.35;100.00;102004.53;7393346;19;19933;-81
2023/12/14 11:17:09;;;;;;;10.77;5.05;;;;;;;5.39;100.00;102006.00;7392861;19;19918;-80
2023/12/14 11:19:40;;;;;;;14.80;5.30;;;;;;;5.43;100.00;102007.50;7394899;19;19923;-81
2023/12/14 11:22:27;;;;;;;13.55;5.28;;;;;;;5.46;100.00;102007.28;7393591;19;19946;-81
2023/12/14 11:24:57;;;;;;;11.38;5.53;;;;;;;5.48;100.00;102009.81;7393334;19;19937;-81
2023/12/14 11:27:30;;;;;;;14.20;6.20;;;;;;;5.47;100.00;102014.31;7393197;19;20281;-81
2023/12/14 11:30:00;;;;;;;12.55;5.57;;;;;;;5.48;100.00;102018.69;7393621;19;19926;-81
2023/12/14 11:32:26;;;;;;;10.60;5.25;;;;;;;5.45;100.00;102010.91;7395372;19;20401;-81